Terminal Aerodrome Forecast
Issued by NWS Detroit/Pontiac, MI

Home | Current Version | Previous Version | Text Only | Print | Product List | Glossary On
Versions: 1 2 3 4 5 6 7 8 9 10 11 12 13 14 15 16 17 18 19 20 21 22 23 24 25 26 27
845
FTUS43 KDTX 242107 AAA
TAFDTW
TAF AMD
KDTW 242107Z 2421/2524 24015G25KT P6SM FEW060 BKN150
     FM250000 23013G21KT P6SM OVC035
     FM250200 23011KT P6SM OVC020
     FM250500 06006KT 4SM -RA BR OVC012
     FM250700 06010KT 2SM -RA BR OVC008
     FM250900 07007KT 1 1/2SM -RA BR OVC004
     FM251500 09010KT 4SM -DZ BR OVC008=

USA.gov is the U.S. government's official web portal to all federal, state and local government web resources and services.